Time;durP1;ratioP1;P1;durP2;ratioP2;P2;SDS_P1;SDS_P2;PMS_P1;PMS_P2;Temp;Humidity;BMP_temperature;BMP_pressure;BME280_temperature;BME280_humidity;BME280_pressure;Samples;Min_cycle;Max_cycle;Signal;HPM_P1;HPM_P2
2023/09/17 00:00:45;;;;;;;11.95;6.43;;;23.20;99.90;;;;;;4848077;29;20128;-83
2023/09/17 00:03:16;;;;;;;9.50;6.60;;;22.90;99.90;;;;;;4854703;29;20072;-83
2023/09/17 00:05:50;;;;;;;13.57;7.47;;;22.90;99.90;;;;;;4857936;29;20045;-81
2023/09/17 00:08:21;;;;;;;16.48;7.75;;;22.90;99.90;;;;;;4865090;29;20041;-85
2023/09/17 00:10:55;;;;;;;12.43;6.50;;;23.10;99.90;;;;;;4854296;29;20045;-84
2023/09/17 00:13:28;;;;;;;10.80;7.10;;;23.10;99.90;;;;;;4862301;29;20053;-84
2023/09/17 00:16:00;;;;;;;11.95;6.93;;;23.10;99.90;;;;;;4866107;29;20120;-81
2023/09/17 00:18:28;;;;;;;9.68;6.53;;;23.10;99.90;;;;;;4847854;29;20053;-79
2023/09/17 00:20:56;;;;;;;11.25;7.18;;;23.00;99.90;;;;;;4849735;29;20049;-79
2023/09/17 00:23:24;;;;;;;10.48;7.07;;;22.90;99.90;;;;;;4850767;29;20041;-80
2023/09/17 00:26:04;;;;;;;11.55;7.40;;;22.70;99.90;;;;;;4846741;29;20049;-81
2023/09/17 00:28:37;;;;;;;11.50;6.75;;;22.80;99.90;;;;;;4866250;29;20055;-82
2023/09/17 00:31:11;;;;;;;11.85;7.68;;;22.90;99.90;;;;;;4863858;29;20144;-80
2023/09/17 00:33:49;;;;;;;9.30;6.82;;;22.90;99.90;;;;;;4862309;29;20116;-81
2023/09/17 00:36:23;;;;;;;9.10;6.78;;;23.00;99.90;;;;;;4852680;29;20037;-81
2023/09/17 00:38:52;;;;;;;11.80;7.57;;;22.90;99.90;;;;;;4862147;29;20045;-80
2023/09/17 00:41:23;;;;;;;13.10;7.82;;;22.80;99.90;;;;;;4847357;29;20042;-82
2023/09/17 00:43:59;;;;;;;11.00;8.10;;;22.70;99.90;;;;;;4849682;29;20077;-82
2023/09/17 00:46:39;;;;;;;10.55;7.50;;;22.80;99.90;;;;;;4867599;29;20091;-84
2023/09/17 00:49:14;;;;;;;12.13;7.78;;;22.80;99.90;;;;;;4868524;29;20037;-82
2023/09/17 00:51:42;;;;;;;11.80;7.30;;;22.80;99.90;;;;;;4843782;29;20390;-82
2023/09/17 00:54:21;;;;;;;17.10;7.80;;;22.80;99.90;;;;;;4865173;29;20045;-84
2023/09/17 00:56:57;;;;;;;11.85;7.57;;;22.70;99.90;;;;;;4850495;29;20084;-80
2023/09/17 00:59:34;;;;;;;15.90;7.35;;;22.60;99.90;;;;;;4864264;29;20041;-82
2023/09/17 01:02:05;;;;;;;12.27;7.55;;;22.50;99.90;;;;;;4869599;29;20089;-82
2023/09/17 01:04:34;;;;;;;10.85;7.25;;;22.50;99.90;;;;;;4863725;29;20057;-82
2023/09/17 01:07:10;;;;;;;12.70;7.93;;;22.50;99.90;;;;;;4847046;29;20061;-81
2023/09/17 01:09:43;;;;;;;13.38;7.78;;;22.30;99.90;;;;;;4847205;29;20072;-85
2023/09/17 01:12:22;;;;;;;15.65;7.97;;;22.10;99.90;;;;;;4848047;29;20038;-80
2023/09/17 01:14:50;;;;;;;12.02;7.80;;;21.90;99.90;;;;;;4845833;29;20073;-81
2023/09/17 01:17:27;;;;;;;12.55;7.13;;;22.00;99.90;;;;;;4852246;29;20037;-80
2023/09/17 01:20:07;;;;;;;12.25;7.22;;;22.10;99.90;;;;;;4865133;29;20042;-82
2023/09/17 01:22:47;;;;;;;12.70;7.47;;;22.00;99.90;;;;;;4843444;29;20042;-81
2023/09/17 01:25:42;;;;;;;12.00;8.15;;;22.10;99.90;;;;;;4846402;29;20072;-83
2023/09/17 01:28:14;;;;;;;12.82;7.30;;;21.90;99.90;;;;;;4862418;29;20034;-80
2023/09/17 01:30:45;;;;;;;11.77;7.65;;;21.90;99.90;;;;;;4847564;29;20378;-80
2023/09/17 01:33:15;;;;;;;12.20;7.13;;;21.90;99.90;;;;;;4860444;29;20041;-80
2023/09/17 01:36:18;;;;;;;11.85;7.07;;;21.70;99.90;;;;;;4850023;29;20061;-79
2023/09/17 01:38:57;;;;;;;12.18;7.30;;;21.80;99.90;;;;;;4844504;29;20042;-80
2023/09/17 01:41:34;;;;;;;9.95;7.30;;;21.80;99.90;;;;;;4863632;29;20146;-79
2023/09/17 01:44:06;;;;;;;11.57;7.15;;;21.70;99.90;;;;;;4851064;29;20044;-79
2023/09/17 01:46:39;;;;;;;14.15;7.53;;;21.70;99.90;;;;;;4850144;29;20120;-83
2023/09/17 01:49:10;;;;;;;;;;;21.80;99.90;;;;;;4867139;29;20041;-84
2023/09/17 01:51:43;;;;;;;11.65;7.57;;;22.00;99.90;;;;;;4864850;29;19938;-84
2023/09/17 01:54:20;;;;;;;13.82;7.30;;;21.90;99.90;;;;;;4843808;29;20132;-86
2023/09/17 01:56:53;;;;;;;13.82;7.13;;;21.80;99.90;;;;;;4854044;29;20120;-88
2023/09/17 01:59:21;;;;;;;13.40;7.32;;;21.70;99.90;;;;;;4864816;29;20464;-86
2023/09/17 02:01:49;;;;;;;11.45;7.45;;;21.60;99.90;;;;;;4855423;29;20140;-87
2023/09/17 02:04:17;;;;;;;12.93;7.63;;;21.70;99.90;;;;;;4864238;29;20038;-84
2023/09/17 02:06:53;;;;;;;13.18;7.45;;;21.70;99.90;;;;;;4857054;29;20056;-87
2023/09/17 02:09:22;;;;;;;15.25;6.93;;;21.80;99.90;;;;;;4868777;29;20118;-88
2023/09/17 02:11:53;;;;;;;14.65;7.68;;;21.80;99.90;;;;;;4852996;29;20102;-84
2023/09/17 02:14:33;;;;;;;10.63;7.32;;;21.90;99.90;;;;;;4872187;29;20061;-87
2023/09/17 02:17:08;;;;;;;13.85;7.90;;;22.00;99.90;;;;;;4859476;29;20534;-85
2023/09/17 02:19:44;;;;;;;12.43;7.20;;;22.10;99.90;;;;;;4865312;29;20410;-88
2023/09/17 02:22:17;;;;;;;11.65;7.10;;;22.00;99.90;;;;;;4872493;29;20038;-88
2023/09/17 02:24:47;;;;;;;14.75;7.97;;;22.00;99.90;;;;;;4851842;29;20109;-88
2023/09/17 02:27:15;;;;;;;14.33;7.83;;;21.80;99.90;;;;;;4854638;29;20637;-87
2023/09/17 02:29:49;;;;;;;13.65;8.25;;;21.80;99.90;;;;;;4864414;29;20470;-87
2023/09/17 02:32:17;;;;;;;13.23;7.78;;;21.60;99.90;;;;;;4854289;29;20037;-87
2023/09/17 02:34:45;;;;;;;12.38;8.05;;;21.60;99.90;;;;;;4867512;29;20068;-81
2023/09/17 02:37:25;;;;;;;14.85;8.20;;;21.60;99.90;;;;;;4859542;29;20044;-83
2023/09/17 02:39:57;;;;;;;11.85;8.77;;;21.60;99.90;;;;;;4850190;29;20404;-81
2023/09/17 02:42:26;;;;;;;16.15;8.38;;;21.40;99.90;;;;;;4854037;29;20065;-84
2023/09/17 02:44:56;;;;;;;11.20;8.20;;;21.30;99.90;;;;;;4837834;29;20109;-84
2023/09/17 02:47:27;;;;;;;;;;;21.40;99.90;;;;;;4860271;29;20088;-80
2023/09/17 02:49:57;;;;;;;12.13;7.43;;;21.50;99.90;;;;;;4868489;29;20751;-83
2023/09/17 02:52:31;;;;;;;13.18;7.80;;;21.30;99.90;;;;;;4869855;29;20042;-83
2023/09/17 02:55:05;;;;;;;11.77;7.82;;;21.10;99.90;;;;;;4868503;29;20131;-80
2023/09/17 02:57:40;;;;;;;11.43;7.70;;;21.10;99.90;;;;;;4855434;29;20056;-83
2023/09/17 03:00:13;;;;;;;13.80;7.95;;;21.10;99.90;;;;;;4838179;29;20068;-83
2023/09/17 03:02:47;;;;;;;10.48;7.68;;;21.00;99.90;;;;;;4855053;29;20422;-85
2023/09/17 03:05:21;;;;;;;12.98;7.85;;;21.10;99.90;;;;;;4851226;29;20037;-81
2023/09/17 03:07:56;;;;;;;11.57;8.00;;;21.10;99.90;;;;;;4867995;29;20112;-80
2023/09/17 03:10:28;;;;;;;12.50;7.88;;;20.80;99.90;;;;;;4866807;29;20041;-81
2023/09/17 03:13:03;;;;;;;11.80;8.45;;;20.90;99.90;;;;;;4850634;29;20128;-82
2023/09/17 03:15:31;;;;;;;12.82;7.93;;;20.60;99.90;;;;;;4851160;29;20053;-80
2023/09/17 03:17:59;;;;;;;15.57;8.75;;;20.70;99.90;;;;;;4868995;29;20037;-83
2023/09/17 03:20:33;;;;;;;11.40;8.77;;;20.80;99.90;;;;;;4867309;29;20037;-81
2023/09/17 03:23:04;;;;;;;15.40;8.32;;;20.60;99.90;;;;;;4852720;29;20139;-81
2023/09/17 03:25:31;;;;;;;;;;;20.40;99.90;;;;;;4867845;29;20091;-80
2023/09/17 03:27:59;;;;;;;13.13;8.52;;;20.30;99.90;;;;;;4864371;29;20002;-79
2023/09/17 03:30:27;;;;;;;14.45;8.20;;;20.40;99.90;;;;;;4870865;29;20048;-78
2023/09/17 03:32:54;;;;;;;11.57;7.78;;;20.40;99.90;;;;;;4846434;29;20046;-78
2023/09/17 03:35:34;;;;;;;15.10;8.65;;;20.50;99.90;;;;;;4865960;29;20125;-78
2023/09/17 03:38:01;;;;;;;11.60;8.45;;;20.40;99.90;;;;;;4866130;29;20048;-80
2023/09/17 03:40:29;;;;;;;13.13;7.57;;;20.50;99.90;;;;;;4865246;29;20385;-81
2023/09/17 03:42:57;;;;;;;14.57;7.95;;;20.60;99.90;;;;;;4865917;29;20120;-81
2023/09/17 03:45:24;;;;;;;16.50;8.30;;;20.70;99.90;;;;;;4868134;29;20037;-82
2023/09/17 03:47:52;;;;;;;12.90;8.10;;;20.60;99.90;;;;;;4866068;29;20414;-82
2023/09/17 03:50:23;;;;;;;12.35;8.35;;;20.70;99.90;;;;;;4869775;29;20042;-78
2023/09/17 03:52:53;;;;;;;14.50;8.18;;;20.50;99.90;;;;;;4861852;29;20056;-81
2023/09/17 03:55:21;;;;;;;14.25;8.10;;;20.30;99.90;;;;;;4866538;29;20049;-79
2023/09/17 03:57:49;;;;;;;14.82;8.90;;;20.40;99.90;;;;;;4866520;29;20098;-78
2023/09/17 04:00:17;;;;;;;13.05;7.95;;;20.20;99.90;;;;;;4861341;29;20108;-80
2023/09/17 04:02:45;;;;;;;14.63;8.23;;;20.30;99.90;;;;;;4851449;29;20056;-79
2023/09/17 04:05:14;;;;;;;12.38;8.38;;;20.20;99.90;;;;;;4867707;29;20044;-78
2023/09/17 04:07:43;;;;;;;13.30;7.63;;;20.50;99.90;;;;;;4848645;29;20598;-77
2023/09/17 04:10:12;;;;;;;17.00;7.97;;;20.80;99.90;;;;;;4855081;29;20054;-77
2023/09/17 04:12:40;;;;;;;10.98;7.60;;;20.80;99.90;;;;;;4847973;29;20044;-77
2023/09/17 04:15:16;;;;;;;11.05;7.63;;;20.90;99.90;;;;;;4850446;29;20441;-80
2023/09/17 04:17:45;;;;;;;10.10;7.65;;;20.70;99.90;;;;;;4865815;29;20157;-81
2023/09/17 04:20:16;;;;;;;14.07;8.45;;;20.70;99.90;;;;;;4849678;29;20635;-79
2023/09/17 04:22:49;;;;;;;12.82;7.85;;;20.80;99.90;;;;;;4863647;29;20061;-79
2023/09/17 04:25:19;;;;;;;15.23;9.57;;;20.80;99.90;;;;;;4864718;29;20138;-78
2023/09/17 04:27:48;;;;;;;14.75;8.80;;;20.70;99.90;;;;;;4843896;29;20067;-79
2023/09/17 04:30:19;;;;;;;11.82;8.23;;;20.70;99.90;;;;;;4866039;29;20569;-79
2023/09/17 04:32:48;;;;;;;11.70;7.90;;;20.60;99.90;;;;;;4850354;29;20431;-80
2023/09/17 04:35:17;;;;;;;13.25;8.25;;;20.50;99.90;;;;;;4845299;29;20390;-81
2023/09/17 04:37:48;;;;;;;15.80;9.35;;;20.50;99.90;;;;;;4865034;29;20136;-78
2023/09/17 04:40:17;;;;;;;13.75;8.35;;;20.50;99.90;;;;;;4866367;29;20377;-86
2023/09/17 04:42:46;;;;;;;11.30;8.45;;;20.60;99.90;;;;;;4849260;29;20625;-85
2023/09/17 04:45:33;;;;;;;13.02;7.97;;;20.70;99.90;;;;;;4849995;29;20390;-82
2023/09/17 04:48:01;;;;;;;16.38;8.35;;;20.80;99.90;;;;;;4865887;29;20038;-84
2023/09/17 04:50:29;;;;;;;13.13;8.75;;;20.70;99.90;;;;;;4851209;29;20050;-84
2023/09/17 04:52:57;;;;;;;13.05;9.02;;;20.30;99.90;;;;;;4868577;29;20121;-82
2023/09/17 04:55:25;;;;;;;14.73;8.05;;;20.20;99.90;;;;;;4854539;29;20135;-82
2023/09/17 04:57:52;;;;;;;15.77;9.27;;;20.30;99.90;;;;;;4867551;29;20121;-82
2023/09/17 05:00:20;;;;;;;12.75;8.60;;;20.40;99.90;;;;;;4868565;29;20037;-81
2023/09/17 05:02:48;;;;;;;14.27;9.05;;;20.50;99.90;;;;;;4867768;29;20128;-80
2023/09/17 05:05:18;;;;;;;14.27;9.23;;;20.50;99.90;;;;;;4872055;29;20036;-80
2023/09/17 05:07:49;;;;;;;13.52;8.75;;;20.60;99.90;;;;;;4852185;29;20406;-82
2023/09/17 05:10:16;;;;;;;12.15;8.02;;;20.70;99.90;;;;;;4870473;29;20036;-83
2023/09/17 05:12:44;;;;;;;13.05;8.40;;;20.70;99.90;;;;;;4852102;29;20132;-79
2023/09/17 05:15:11;;;;;;;12.35;8.38;;;20.70;99.90;;;;;;4870854;29;20965;-79
2023/09/17 05:17:39;;;;;;;11.85;8.70;;;20.70;99.90;;;;;;4849080;29;20140;-79
2023/09/17 05:20:07;;;;;;;16.23;8.55;;;20.60;99.90;;;;;;4868553;29;20037;-84
2023/09/17 05:22:35;;;;;;;14.90;9.02;;;20.60;99.90;;;;;;4869424;29;20064;-81
2023/09/17 05:25:06;;;;;;;16.73;8.77;;;20.80;99.90;;;;;;4857855;29;20129;-81
2023/09/17 05:27:33;;;;;;;12.05;8.32;;;20.90;99.90;;;;;;4851699;29;20093;-79
2023/09/17 05:30:10;;;;;;;14.52;9.07;;;21.00;99.90;;;;;;4854982;29;20647;-80
2023/09/17 05:32:38;;;;;;;13.02;8.27;;;20.90;99.90;;;;;;4847804;29;20090;-79
2023/09/17 05:35:07;;;;;;;11.63;8.40;;;21.00;99.90;;;;;;4841322;29;20065;-86
2023/09/17 05:37:35;;;;;;;12.90;7.93;;;21.00;99.90;;;;;;4850408;29;20052;-81
2023/09/17 05:40:03;;;;;;;15.10;7.88;;;20.90;99.90;;;;;;4853810;29;20099;-81
2023/09/17 05:42:31;;;;;;;14.23;9.30;;;20.90;99.90;;;;;;4849550;29;20384;-81
2023/09/17 05:45:00;;;;;;;13.70;8.32;;;21.00;99.90;;;;;;4868290;29;20941;-83
2023/09/17 05:47:46;;;;;;;13.32;7.65;;;20.90;99.90;;;;;;4867452;29;20038;-82
2023/09/17 05:50:14;;;;;;;18.35;9.07;;;20.90;99.90;;;;;;4866679;29;20052;-83
2023/09/17 05:52:43;;;;;;;13.07;8.60;;;20.90;99.90;;;;;;4853709;29;20033;-82
2023/09/17 05:55:10;;;;;;;12.32;8.63;;;20.90;99.90;;;;;;4848319;29;20052;-82
2023/09/17 05:57:38;;;;;;;14.20;9.18;;;21.10;99.90;;;;;;4852344;29;20045;-80
2023/09/17 06:00:07;;;;;;;13.65;8.75;;;21.10;99.90;;;;;;4868685;29;20058;-88
2023/09/17 06:02:35;;;;;;;15.18;8.50;;;21.10;99.90;;;;;;4870287;29;20068;-86
2023/09/17 06:05:03;;;;;;;13.18;9.88;;;21.20;99.90;;;;;;4867859;29;20045;-85
2023/09/17 06:07:30;;;;;;;13.60;9.23;;;21.10;99.90;;;;;;4850813;29;20054;-83
2023/09/17 06:09:57;;;;;;;15.68;8.63;;;21.20;99.90;;;;;;4852949;29;20137;-82
2023/09/17 06:12:25;;;;;;;15.05;10.35;;;21.30;99.90;;;;;;4863344;29;20066;-83
2023/09/17 06:14:52;;;;;;;13.55;8.93;;;21.40;99.90;;;;;;4862909;29;20046;-82
2023/09/17 06:17:19;;;;;;;13.20;9.05;;;21.60;99.90;;;;;;4866212;29;20117;-84
2023/09/17 06:19:47;;;;;;;18.83;9.65;;;21.60;99.90;;;;;;4848052;29;20042;-82
2023/09/17 06:22:17;;;;;;;16.75;9.07;;;21.60;99.90;;;;;;4852340;29;20503;-85
2023/09/17 06:24:46;;;;;;;17.50;10.55;;;21.80;99.90;;;;;;4854250;29;20037;-87
2023/09/17 06:27:13;;;;;;;15.63;10.38;;;21.30;99.90;;;;;;4849858;29;20061;-87
2023/09/17 06:29:40;;;;;;;19.65;10.70;;;21.40;99.90;;;;;;4853964;29;20454;-85
2023/09/17 06:32:08;;;;;;;19.20;10.18;;;21.60;99.90;;;;;;4845025;29;20049;-83
2023/09/17 06:34:36;;;;;;;17.83;10.20;;;21.70;99.90;;;;;;4848951;29;20073;-86
2023/09/17 06:37:04;;;;;;;16.98;9.85;;;21.70;99.90;;;;;;4851439;29;20113;-84
2023/09/17 06:39:32;;;;;;;15.73;9.73;;;21.70;99.90;;;;;;4850646;29;20061;-89
2023/09/17 06:41:59;;;;;;;13.48;9.10;;;21.70;99.90;;;;;;4851893;29;20095;-82
2023/09/17 06:44:26;;;;;;;12.15;7.88;;;21.90;99.90;;;;;;4863970;29;20044;-83
2023/09/17 06:46:54;;;;;;;14.07;8.32;;;22.00;99.90;;;;;;4863425;29;20046;-82
2023/09/17 06:49:21;;;;;;;15.88;7.93;;;22.00;99.90;;;;;;4862787;29;20440;-82
2023/09/17 06:51:52;;;;;;;19.42;12.38;;;21.80;99.90;;;;;;4847279;29;20410;-82
2023/09/17 06:54:19;;;;;;;17.25;10.95;;;21.70;99.90;;;;;;4843861;29;20037;-83
2023/09/17 06:56:47;;;;;;;19.48;14.13;;;21.60;99.90;;;;;;4862501;29;20053;-83
2023/09/17 06:59:14;;;;;;;21.38;15.40;;;21.80;99.90;;;;;;4846615;29;20129;-83
2023/09/17 07:01:45;;;;;;;24.42;17.20;;;22.00;99.90;;;;;;4863195;29;20056;-85
2023/09/17 07:04:13;;;;;;;28.08;19.33;;;22.10;99.90;;;;;;4860985;29;20098;-83
2023/09/17 07:06:40;;;;;;;47.72;31.40;;;22.20;99.90;;;;;;4849757;29;20569;-82
2023/09/17 07:09:08;;;;;;;28.75;18.65;;;22.30;99.90;;;;;;4864761;29;20106;-83
2023/09/17 07:11:35;;;;;;;83.22;53.72;;;22.20;99.90;;;;;;4865431;29;20094;-90
2023/09/17 07:14:09;;;;;;;57.47;40.55;;;22.30;99.90;;;;;;4851025;29;20057;-87
2023/09/17 07:16:39;;;;;;;54.63;39.10;;;22.40;99.90;;;;;;4862574;29;20137;-90
2023/09/17 07:19:07;;;;;;;34.20;24.27;;;22.70;99.90;;;;;;4848212;29;20064;-89
2023/09/17 07:21:35;;;;;;;59.28;41.85;;;22.70;99.90;;;;;;4864039;29;20060;-91
2023/09/17 07:24:03;;;;;;;32.58;21.75;;;22.90;99.90;;;;;;4863116;29;20037;-88
2023/09/17 07:26:41;;;;;;;78.05;54.13;;;22.90;99.90;;;;;;4848945;29;20045;-87
2023/09/17 07:29:09;;;;;;;22.52;17.75;;;23.00;99.90;;;;;;4844506;29;20042;-88
2023/09/17 07:31:36;;;;;;;14.32;10.07;;;22.90;99.90;;;;;;4848671;29;20061;-89
2023/09/17 07:34:04;;;;;;;14.55;10.75;;;22.70;99.90;;;;;;4847043;29;20057;-88
2023/09/17 07:36:32;;;;;;;16.63;10.57;;;22.60;99.90;;;;;;4858792;29;20132;-84
2023/09/17 07:38:59;;;;;;;19.48;10.80;;;22.90;99.90;;;;;;4844245;29;20394;-91
2023/09/17 07:41:26;;;;;;;16.40;10.93;;;22.90;99.90;;;;;;4865115;29;20078;-88
2023/09/17 07:43:55;;;;;;;13.23;8.27;;;22.90;99.90;;;;;;4869917;29;20069;-86
2023/09/17 07:46:22;;;;;;;17.38;10.80;;;23.10;99.90;;;;;;4866196;29;20048;-90
2023/09/17 07:48:52;;;;;;;11.90;7.75;;;23.20;99.90;;;;;;4852962;29;20034;-90
2023/09/17 07:51:20;;;;;;;15.13;8.10;;;23.20;99.90;;;;;;4868944;29;20038;-88
2023/09/17 07:53:48;;;;;;;11.85;6.78;;;23.50;99.90;;;;;;4868627;29;20502;-84
2023/09/17 07:56:18;;;;;;;10.50;7.15;;;23.40;99.90;;;;;;4868149;29;20040;-86
2023/09/17 07:58:50;;;;;;;11.60;6.80;;;23.40;99.90;;;;;;4852984;29;20048;-80
2023/09/17 08:01:18;;;;;;;12.50;7.28;;;23.40;99.90;;;;;;4844559;29;20045;-85
2023/09/17 08:03:45;;;;;;;10.05;6.13;;;23.40;99.90;;;;;;4866930;29;20550;-81
2023/09/17 08:06:14;;;;;;;9.95;6.13;;;23.30;99.90;;;;;;4863951;29;20045;-92
2023/09/17 08:08:45;;;;;;;11.40;7.03;;;23.50;99.90;;;;;;4866433;29;20058;-82
2023/09/17 08:11:16;;;;;;;10.63;6.50;;;23.70;99.90;;;;;;4869368;29;20128;-87
2023/09/17 08:13:43;;;;;;;;;;;23.80;99.90;;;;;;4853961;29;20490;-89
2023/09/17 08:16:14;;;;;;;11.38;6.93;;;24.10;99.90;;;;;;4865713;29;20027;-88
2023/09/17 08:18:42;;;;;;;;;;;24.30;99.90;;;;;;4865783;29;20049;-89
2023/09/17 08:21:13;;;;;;;11.10;6.53;;;24.20;99.90;;;;;;4869249;29;20368;-85
2023/09/17 08:24:01;;;;;;;12.05;6.07;;;24.20;99.90;;;;;;4871226;29;20128;-88
2023/09/17 08:26:48;;;;;;;10.43;6.00;;;24.30;99.90;;;;;;4868051;29;20044;-83
2023/09/17 08:29:35;;;;;;;23.23;14.60;;;24.60;99.90;;;;;;4863676;29;20077;-91
2023/09/17 08:32:22;;;;;;;33.10;22.75;;;24.90;99.90;;;;;;4865447;29;20110;-85
2023/09/17 08:35:14;;;;;;;13.18;8.88;;;25.00;99.90;;;;;;4866467;29;20104;-84
2023/09/17 08:37:43;;;;;;;14.38;6.45;;;25.10;99.90;;;;;;4867105;29;20586;-85
2023/09/17 08:40:17;;;;;;;9.90;5.68;;;25.00;99.90;;;;;;4848788;29;20048;-86
2023/09/17 08:42:48;;;;;;;9.60;5.53;;;25.00;99.90;;;;;;4849490;29;20378;-85
2023/09/17 08:45:18;;;;;;;10.98;5.60;;;25.30;99.90;;;;;;4846800;29;20046;-84
2023/09/17 08:47:46;;;;;;;11.02;5.30;;;25.20;99.90;;;;;;4835468;29;20113;-81
2023/09/17 08:50:15;;;;;;;8.85;5.38;;;25.20;99.90;;;;;;4852404;29;20076;-84
2023/09/17 08:52:51;;;;;;;15.75;5.03;;;25.30;99.90;;;;;;4868307;29;20452;-87
2023/09/17 08:55:20;;;;;;;10.70;5.88;;;25.30;99.90;;;;;;4866468;29;20056;-88
2023/09/17 08:57:55;;;;;;;10.98;5.55;;;25.30;99.90;;;;;;4866877;29;20139;-81
2023/09/17 09:00:24;;;;;;;9.32;5.18;;;25.50;99.90;;;;;;4857496;29;20041;-87
2023/09/17 09:02:57;;;;;;;7.90;4.63;;;25.40;99.90;;;;;;4865929;23;20055;-83
2023/09/17 09:05:27;;;;;;;9.18;4.82;;;25.30;99.00;;;;;;4871336;29;20045;-89
2023/09/17 09:07:56;;;;;;;8.15;5.22;;;25.20;99.40;;;;;;4888702;29;20392;-83
2023/09/17 09:10:24;;;;;;;10.15;5.05;;;25.40;99.80;;;;;;4873205;29;20096;-85
2023/09/17 09:12:53;;;;;;;10.50;5.15;;;25.60;99.90;;;;;;4871903;29;20366;-83
2023/09/17 09:15:21;;;;;;;11.32;5.32;;;25.50;99.30;;;;;;4872351;29;20461;-83
2023/09/17 09:17:54;;;;;;;8.63;5.55;;;25.60;99.30;;;;;;4868058;29;20109;-84
2023/09/17 09:20:22;;;;;;;9.82;4.82;;;26.00;98.80;;;;;;4870355;29;20568;-81
2023/09/17 09:22:49;;;;;;;11.13;4.57;;;26.10;98.40;;;;;;4869619;29;20115;-85
2023/09/17 09:25:18;;;;;;;10.98;4.85;;;26.30;98.10;;;;;;4872896;29;20525;-83
2023/09/17 09:27:46;;;;;;;69.90;47.35;;;26.30;98.60;;;;;;4871926;29;20048;-89
2023/09/17 09:30:16;;;;;;;37.05;26.55;;;26.50;98.20;;;;;;4884655;29;20041;-86
2023/09/17 09:32:46;;;;;;;;;;;26.40;98.30;;;;;;4861164;29;20622;-87
2023/09/17 09:35:23;;;;;;;9.82;6.32;;;26.10;98.30;;;;;;4855691;29;20004;-81
2023/09/17 09:37:53;;;;;;;10.25;5.68;;;26.20;97.90;;;;;;4876304;29;20045;-85
2023/09/17 09:40:21;;;;;;;;;;;26.30;98.70;;;;;;4880973;29;20481;-90
2023/09/17 09:42:49;;;;;;;7.93;4.72;;;26.30;98.90;;;;;;4890714;29;20432;-83
2023/09/17 09:45:18;;;;;;;8.20;4.70;;;26.50;98.20;;;;;;4877412;29;20045;-91
2023/09/17 09:47:50;;;;;;;10.25;5.13;;;26.90;97.80;;;;;;4873771;29;20045;-84
2023/09/17 09:50:24;;;;;;;9.18;5.95;;;27.00;98.10;;;;;;4884665;29;20072;-83
2023/09/17 09:52:52;;;;;;;8.20;4.65;;;26.80;98.00;;;;;;4889762;29;20227;-85
2023/09/17 09:55:27;;;;;;;9.73;5.38;;;27.00;97.70;;;;;;4878369;29;20033;-86
2023/09/17 09:57:55;;;;;;;12.95;8.90;;;26.90;98.00;;;;;;4876233;29;20351;-82
2023/09/17 10:00:29;;;;;;;;;;;27.00;97.30;;;;;;4865871;29;20615;-81
2023/09/17 10:02:57;;;;;;;44.92;30.35;;;27.30;96.70;;;;;;4872142;29;20276;-83
2023/09/17 10:05:39;;;;;;;19.08;12.38;;;27.50;96.40;;;;;;4867441;29;20489;-83
2023/09/17 10:08:08;;;;;;;32.25;21.40;;;27.80;95.70;;;;;;4870040;29;20565;-84
2023/09/17 10:10:37;;;;;;;29.67;20.90;;;27.90;95.70;;;;;;4860766;29;20042;-86
2023/09/17 10:13:11;;;;;;;15.38;10.77;;;27.90;95.50;;;;;;4875151;29;20044;-85
2023/09/17 10:15:45;;;;;;;14.00;7.65;;;27.90;95.10;;;;;;4862318;29;20078;-88
2023/09/17 10:18:17;;;;;;;10.40;7.40;;;28.00;94.70;;;;;;4873375;29;20057;-85
2023/09/17 10:20:47;;;;;;;10.18;6.03;;;28.40;94.30;;;;;;4873656;29;20126;-87
2023/09/17 10:23:18;;;;;;;9.73;5.65;;;28.20;94.50;;;;;;4877588;29;20049;-87
2023/09/17 10:25:48;;;;;;;11.00;5.50;;;28.20;93.60;;;;;;4866490;29;20049;-88
2023/09/17 10:28:17;;;;;;;12.97;6.10;;;28.40;93.20;;;;;;4874853;29;20112;-84
2023/09/17 10:30:45;;;;;;;55.38;40.60;;;28.60;93.60;;;;;;4866961;29;20038;-88
2023/09/17 10:33:16;;;;;;;33.25;25.08;;;28.20;93.80;;;;;;4873695;29;20037;-85
2023/09/17 10:35:44;;;;;;;13.32;9.93;;;28.30;94.10;;;;;;4873575;29;20576;-81
2023/09/17 10:38:14;;;;;;;10.35;5.75;;;28.30;93.10;;;;;;4873269;29;20489;-84
2023/09/17 10:40:43;;;;;;;12.30;6.78;;;28.40;92.50;;;;;;4860936;29;20053;-84
2023/09/17 10:43:18;;;;;;;20.98;13.20;;;28.60;92.80;;;;;;4871099;29;20416;-88
2023/09/17 10:45:47;;;;;;;25.75;17.30;;;28.70;93.60;;;;;;4863279;29;20049;-85
2023/09/17 10:48:16;;;;;;;20.27;14.65;;;28.90;92.20;;;;;;4858405;29;20098;-83
2023/09/17 10:50:44;;;;;;;20.27;12.20;;;29.00;91.40;;;;;;4880050;29;20126;-88
2023/09/17 10:53:11;;;;;;;12.23;6.90;;;29.00;91.40;;;;;;4878776;29;20040;-82
2023/09/17 10:55:43;;;;;;;10.68;5.43;;;29.00;91.60;;;;;;4875899;29;20395;-80
2023/09/17 10:58:19;;;;;;;11.00;7.20;;;29.30;91.30;;;;;;4859203;29;20037;-87
2023/09/17 11:00:48;;;;;;;10.50;6.10;;;29.50;91.50;;;;;;4874631;29;20046;-88
2023/09/17 11:03:19;;;;;;;7.55;5.20;;;29.60;90.80;;;;;;4874402;29;20073;-84
2023/09/17 11:05:49;;;;;;;10.50;6.53;;;29.50;89.80;;;;;;4862244;29;20109;-84
2023/09/17 11:08:17;;;;;;;25.67;16.80;;;29.40;92.90;;;;;;4859751;29;20426;-82
2023/09/17 11:10:45;;;;;;;29.17;19.70;;;29.40;90.30;;;;;;4858465;29;20358;-85
2023/09/17 11:13:13;;;;;;;57.25;39.10;;;29.40;90.20;;;;;;4877470;29;20033;-92
2023/09/17 11:15:44;;;;;;;37.28;27.48;;;29.40;90.60;;;;;;4858953;29;20046;-84
2023/09/17 11:18:11;;;;;;;38.83;28.20;;;29.60;91.10;;;;;;4858701;29;20041;-78
2023/09/17 11:21:06;;;;;;;64.97;49.45;;;29.70;91.30;;;;;;4874617;29;20066;-89
2023/09/17 11:23:47;;;;;;;21.63;13.90;;;29.30;89.70;;;;;;4873245;29;20049;-82
2023/09/17 11:26:20;;;;;;;20.17;14.60;;;29.70;87.50;;;;;;4873209;29;20413;-84
2023/09/17 11:28:58;;;;;;;33.03;24.40;;;29.80;87.00;;;;;;4856485;29;20121;-83
2023/09/17 11:31:27;;;;;;;24.38;18.73;;;29.90;89.10;;;;;;4860639;29;20383;-85
2023/09/17 11:33:55;;;;;;;72.68;54.33;;;30.00;86.10;;;;;;4853659;29;20037;-87
2023/09/17 11:36:23;;;;;;;58.03;43.78;;;30.20;87.90;;;;;;4863808;29;20104;-94
2023/09/17 11:38:50;;;;;;;15.40;12.20;;;31.70;82.90;;;;;;4871489;29;20078;-92
2023/09/17 11:41:50;;;;;;;9.15;6.57;;;31.80;80.60;;;;;;4880600;29;20053;-87
2023/09/17 11:44:20;;;;;;;14.65;8.95;;;31.00;82.70;;;;;;4858882;29;20037;-88
2023/09/17 11:46:48;;;;;;;9.25;6.10;;;30.40;85.20;;;;;;4857234;29;20457;-85
2023/09/17 11:49:16;;;;;;;11.20;6.40;;;30.30;84.20;;;;;;4871940;29;20052;-79
2023/09/17 11:51:46;;;;;;;10.83;5.83;;;30.10;85.00;;;;;;4856183;29;20046;-84
2023/09/17 11:54:22;;;;;;;11.85;6.07;;;30.10;86.10;;;;;;4873480;29;20373;-88
2023/09/17 11:56:53;;;;;;;9.07;6.22;;;30.50;83.70;;;;;;4858314;29;20065;-81
2023/09/17 11:59:22;;;;;;;8.82;5.43;;;30.80;84.20;;;;;;4854886;29;20048;-81
2023/09/17 12:01:54;;;;;;;11.27;5.40;;;31.10;81.90;;;;;;4870341;29;20057;-86
2023/09/17 12:04:30;;;;;;;12.00;6.93;;;31.30;81.20;;;;;;4855046;29;20044;-86
2023/09/17 12:06:58;;;;;;;10.48;6.63;;;31.00;81.40;;;;;;4857171;29;20042;-82
2023/09/17 12:10:00;;;;;;;10.98;5.57;;;31.00;82.80;;;;;;4871326;29;20034;-86
2023/09/17 12:12:34;;;;;;;10.68;5.65;;;31.00;80.80;;;;;;4859343;29;20060;-83
2023/09/17 12:15:04;;;;;;;15.85;5.97;;;31.10;81.20;;;;;;4874738;29;20940;-82
2023/09/17 12:17:33;;;;;;;10.77;6.07;;;31.50;81.10;;;;;;4857116;29;20049;-80
2023/09/17 12:29:38;;;;;;;17.05;12.68;;;31.30;77.40;;;;;;4863466;29;20045;-79
2023/09/17 12:32:06;;;;;;;14.43;8.77;;;31.40;76.90;;;;;;4850794;29;20128;-80
2023/09/17 12:34:34;;;;;;;13.10;5.75;;;31.60;77.70;;;;;;4853694;29;20060;-79
2023/09/17 12:37:20;;;;;;;9.70;6.30;;;31.50;76.30;;;;;;4854439;29;20130;-85
2023/09/17 12:39:49;;;;;;;9.20;5.75;;;31.50;78.40;;;;;;4853685;29;20111;-82
2023/09/17 12:42:17;;;;;;;11.87;5.63;;;31.70;77.40;;;;;;4870610;29;20052;-80
2023/09/17 12:44:44;;;;;;;8.50;5.40;;;31.80;78.10;;;;;;4852601;29;20041;-80
2023/09/17 12:47:13;;;;;;;8.55;6.25;;;32.00;75.80;;;;;;4855982;29;20042;-80
2023/09/17 12:49:41;;;;;;;14.63;6.90;;;32.00;81.50;;;;;;4854958;29;20089;-78
2023/09/17 12:52:10;;;;;;;9.82;5.80;;;32.20;80.10;;;;;;4854230;29;20098;-80
2023/09/17 12:54:37;;;;;;;13.07;7.38;;;32.20;74.90;;;;;;4858698;29;20169;-77
2023/09/17 12:57:06;;;;;;;9.68;5.35;;;32.20;80.60;;;;;;4850468;29;20061;-79
2023/09/17 12:59:37;;;;;;;9.65;5.88;;;32.40;75.00;;;;;;4868406;29;20044;-79
2023/09/17 13:02:06;;;;;;;11.68;5.93;;;32.30;74.70;;;;;;4855385;29;20042;-79
2023/09/17 13:04:43;;;;;;;12.88;6.40;;;32.00;75.10;;;;;;4873323;29;20110;-79
2023/09/17 13:07:16;;;;;;;44.15;31.92;;;32.20;80.70;;;;;;4860375;29;20045;-81